Weather History for KPMV - February, 2013

Change the Weather History Date:

Sunday, February 3, 2013

  Actual Average (KOFF) Record (KOFF)
Temperature  
Mean Temperature 31 °F -  
Max Temperature 41 °F 34 °F 59 °F (2005)
Min Temperature 21 °F 17 °F -9 °F (2011)
Degree Days  
Heating Degree Days 34    
Moisture  
Dew Point 24 °F    
Average Humidity 67    
Maximum Humidity 80    
Minimum Humidity 53    
Precipitation  
Precipitation 0.00 in - - ()
Sea Level Pressure  
Sea Level Pressure 30.05 in    
Wind  
Wind Speed 12 mph (SW)    
Max Wind Speed 23 mph    
Max Gust Speed 32 mph    
Visibility 10 miles    
Events      
Averages and records for this station are not official NWS values.
T = Trace of Precipitation, MM = Missing Value Source: NWS Daily Summary

Daily Weather History Graph

Daily Weather History Graph

Search for Another Location

Airport or City:

Trip Planner

Search our weather history database for the weather conditions in past years. The results will help you decide how hot, cold, wet, or windy it might be!

Date:

Astronomy

Feb. 03, 2013 Rise Set
Actual Time 7:31 AM CST 5:43 PM CST
Civil Twilight 7:02 AM CST 6:12 PM CST
Nautical Twilight 6:30 AM CST 6:45 PM CST
Astronomical Twilight 5:58 AM CST 7:17 PM CST
Moon 1:00 AM CST (2/3) 11:21 AM CST (2/3)
Length of Visible Light 11h 09m
Length of Day
10h 11m
Waning Gibbous, 48% of the Moon is Illuminated
Feb 3
Waning Gibbous
Feb 10
New
Feb 17
First Quarter
Feb 25
Full
Mar 4
Last Quarter

Hourly Weather History & Observations

Time (CST) Temp. Windchill Dew Point Humidity Pressure Visibility Wind Dir Wind Speed Gust Speed Precip Events Conditions
12:15 AM 37.0 °F 26.4 °F 27.7 °F 69% 30.12 in 10.0 mi NW 20.7 mph 29.9 mph N/A   Mostly Cloudy
12:35 AM 35.8 °F 26.1 °F 27.5 °F 72% 30.14 in 10.0 mi NW 16.1 mph - N/A   Scattered Clouds
12:55 AM 35.1 °F 25.9 °F 27.1 °F 73% 30.13 in 10.0 mi NW 13.8 mph - N/A   Scattered Clouds
1:15 AM 33.8 °F 25.8 °F 27.0 °F 76% 30.15 in 10.0 mi NW 10.4 mph - N/A   Scattered Clouds
1:35 AM 32.9 °F 24.1 °F 27.0 °F 79% 30.16 in 10.0 mi NNW 11.5 mph - N/A   Clear
1:55 AM 32.0 °F 23.0 °F 26.4 °F 80% 30.16 in 10.0 mi NW 11.5 mph - N/A   Clear
2:15 AM 31.6 °F 22.6 °F 26.2 °F 80% 30.18 in 10.0 mi NW 11.5 mph 18.4 mph N/A   Clear
2:35 AM 32.0 °F 19.2 °F 22.5 °F 68% 30.18 in 10.0 mi NW 23.0 mph 32.2 mph N/A   Clear
2:55 AM 31.5 °F 19.4 °F 19.8 °F 62% 30.18 in 10.0 mi NW 19.6 mph 25.3 mph N/A   Clear
3:15 AM 30.7 °F 19.2 °F 19.9 °F 64% 30.18 in 10.0 mi NW 17.3 mph - N/A   Clear
3:35 AM 30.0 °F 19.5 °F 19.9 °F 66% 30.18 in 10.0 mi NW 13.8 mph - N/A   Clear
3:55 AM 28.9 °F 19.2 °F 19.9 °F 69% 30.17 in 10.0 mi NW 11.5 mph - N/A   Clear
4:15 AM 28.4 °F 17.5 °F 19.0 °F 68% 30.18 in 10.0 mi WNW 13.8 mph 19.6 mph N/A   Clear
4:35 AM 28.4 °F 17.0 °F 18.3 °F 66% 30.18 in 10.0 mi NW 15.0 mph - N/A   Clear
4:55 AM 28.0 °F 16.1 °F 17.6 °F 65% 30.19 in 10.0 mi NW 16.1 mph 23.0 mph N/A   Clear
5:15 AM 27.3 °F 16.1 °F 17.6 °F 67% 30.20 in 10.0 mi NW 13.8 mph - N/A   Clear
5:35 AM 26.6 °F 16.8 °F 17.1 °F 67% 30.20 in 10.0 mi NW 10.4 mph - N/A   Clear
5:55 AM 26.1 °F 16.8 °F 16.5 °F 67% 30.20 in 10.0 mi NW 9.2 mph - N/A   Clear
6:15 AM 25.3 °F 16.0 °F 16.2 °F 68% 30.19 in 10.0 mi NNW 9.2 mph - N/A   Clear
6:35 AM 24.3 °F 16.3 °F 15.8 °F 70% 30.19 in 10.0 mi NNW 6.9 mph - N/A   Clear
6:55 AM 23.9 °F 16.8 °F 15.4 °F 70% 30.20 in 10.0 mi WNW 5.8 mph - N/A   Clear
7:15 AM 21.9 °F 13.4 °F 14.9 °F 74% 30.20 in 10.0 mi WNW 6.9 mph - N/A   Clear
7:35 AM 21.9 °F 14.5 °F 15.4 °F 76% 30.21 in 10.0 mi West 5.8 mph - N/A   Clear
7:55 AM 22.3 °F - 15.4 °F 75% 30.22 in 10.0 mi Calm Calm - N/A   Clear
8:15 AM 22.5 °F 16.3 °F 15.4 °F 74% 30.21 in 10.0 mi West 4.6 mph - N/A   Clear
8:35 AM 23.9 °F 16.8 °F 16.5 °F 73% 30.21 in 10.0 mi WSW 5.8 mph - N/A   Clear
8:55 AM 25.7 °F 19.0 °F 17.6 °F 71% 30.21 in 10.0 mi West 5.8 mph - N/A   Clear
9:15 AM 27.1 °F 23.2 °F 17.4 °F 67% 30.20 in 10.0 mi West 3.5 mph - N/A   Clear
9:35 AM 28.4 °F 24.6 °F 17.6 °F 64% 30.19 in 10.0 mi WSW 3.5 mph - N/A   Clear
9:55 AM 29.5 °F - 18.1 °F 63% 30.18 in 10.0 mi Calm Calm - N/A   Clear
10:15 AM 30.4 °F - 18.3 °F 61% 30.18 in 10.0 mi Calm Calm - N/A   Clear
10:35 AM 31.1 °F 25.4 °F 19.6 °F 62% 30.17 in 10.0 mi South 5.8 mph - N/A   Clear
10:55 AM 32.2 °F 25.0 °F 20.7 °F 63% 30.16 in 10.0 mi South 8.1 mph - N/A   Clear
11:15 AM 32.5 °F 24.8 °F 21.6 °F 64% 30.14 in 10.0 mi South 9.2 mph - N/A   Clear
11:35 AM 33.8 °F 26.4 °F 23.2 °F 65% 30.13 in 10.0 mi South 9.2 mph - N/A   Clear
11:55 AM 34.9 °F 27.7 °F 23.9 °F 64% 30.11 in 10.0 mi South 9.2 mph - N/A   Clear
12:15 PM 35.6 °F 28.0 °F 24.1 °F 63% 30.11 in 10.0 mi South 10.4 mph - N/A   Clear
12:35 PM 36.5 °F 27.8 °F 24.1 °F 61% 30.09 in 10.0 mi South 13.8 mph - N/A   Clear
12:55 PM 36.9 °F 28.7 °F 24.6 °F 61% 30.08 in 10.0 mi South 12.7 mph 19.6 mph N/A   Clear
1:15 PM 37.8 °F 29.4 °F 25.2 °F 60% 30.07 in 10.0 mi South 13.8 mph 20.7 mph N/A   Clear
1:35 PM 38.1 °F 31.2 °F 25.3 °F 60% 30.06 in 10.0 mi South 10.4 mph - N/A   Clear
1:55 PM 39.2 °F 30.8 °F 25.7 °F 58% 30.04 in 10.0 mi South 15.0 mph 19.6 mph N/A   Clear
2:15 PM 39.7 °F 31.9 °F 25.7 °F 57% 30.03 in 10.0 mi South 13.8 mph - N/A   Clear
2:35 PM 40.6 °F 33.8 °F 27.0 °F 58% 30.01 in 10.0 mi South 11.5 mph - N/A   Clear
2:55 PM 41.5 °F 34.2 °F 25.7 °F 53% 30.00 in 10.0 mi SSW 13.8 mph - N/A   Clear
3:15 PM 41.9 °F 34.3 °F 26.1 °F 53% 29.99 in 10.0 mi South 15.0 mph - N/A   Clear
3:35 PM 41.9 °F 35.9 °F 26.6 °F 55% 29.97 in 10.0 mi SSW 10.4 mph - N/A   Clear
3:55 PM 41.9 °F 35.9 °F 27.0 °F 55% 29.96 in 10.0 mi South 10.4 mph - N/A   Clear
4:15 PM 41.4 °F 34.7 °F 28.0 °F 59% 29.94 in 10.0 mi South 11.5 mph - N/A   Clear
4:35 PM 41.0 °F 34.7 °F 28.4 °F 61% 29.93 in 10.0 mi South 10.4 mph - N/A   Clear
4:55 PM 40.5 °F 34.1 °F 27.5 °F 60% 29.92 in 10.0 mi South 10.4 mph - N/A   Clear
5:15 PM 39.6 °F 33.0 °F 27.9 °F 63% 29.91 in 10.0 mi South 10.4 mph - N/A   Clear
5:35 PM 38.3 °F 33.2 °F 28.2 °F 67% 29.91 in 10.0 mi South 6.9 mph - N/A   Clear
5:55 PM 37.9 °F 31.5 °F 28.2 °F 68% 29.90 in 10.0 mi South 9.2 mph - N/A   Clear
6:15 PM 36.9 °F 29.6 °F 28.4 °F 71% 29.90 in 10.0 mi South 10.4 mph - N/A   Clear
6:35 PM 36.5 °F 29.7 °F 28.6 °F 73% 29.89 in 10.0 mi South 9.2 mph - N/A   Clear
6:55 PM 36.5 °F 30.3 °F 28.4 °F 72% 29.89 in 10.0 mi South 8.1 mph - N/A   Clear
7:15 PM 36.5 °F 31.0 °F 28.2 °F 72% 29.89 in 10.0 mi South 6.9 mph - N/A   Clear
7:35 PM 36.9 °F 30.7 °F 28.2 °F 71% 29.89 in 10.0 mi South 8.1 mph - N/A   Clear
7:55 PM 36.9 °F 32.2 °F 28.0 °F 70% 29.88 in 10.0 mi South 5.8 mph - N/A   Clear
8:15 PM 36.1 °F 32.3 °F 28.0 °F 72% 29.87 in 10.0 mi SSE 4.6 mph - N/A   Clear
8:35 PM 35.4 °F 29.7 °F 28.0 °F 75% 29.86 in 10.0 mi South 6.9 mph - N/A   Clear
8:55 PM 36.0 °F 31.1 °F 27.5 °F 71% 29.86 in 10.0 mi SSE 5.8 mph - N/A   Clear
9:15 PM 35.8 °F 30.9 °F 27.3 °F 71% 29.85 in 10.0 mi South 5.8 mph - N/A   Clear
9:35 PM 36.5 °F 32.7 °F 27.1 °F 69% 29.85 in 10.0 mi South 4.6 mph - N/A   Clear
9:55 PM 35.4 °F 30.5 °F 26.8 °F 71% 29.84 in 10.0 mi SSE 5.8 mph - N/A   Clear
10:15 PM 35.6 °F 29.2 °F 27.3 °F 72% 29.82 in 10.0 mi South 8.1 mph - N/A   Clear
10:35 PM 36.1 °F 28.7 °F 27.5 °F 71% 29.81 in 10.0 mi South 10.4 mph - N/A   Clear
10:55 PM 37.0 °F 29.8 °F 27.5 °F 68% 29.81 in 10.0 mi South 10.4 mph - N/A   Clear
11:15 PM 36.7 °F 28.9 °F 27.7 °F 70% 29.79 in 10.0 mi South 11.5 mph - N/A   Clear
11:35 PM 37.0 °F 29.3 °F 27.7 °F 69% 29.79 in 10.0 mi South 11.5 mph - N/A   Clear
11:55 PM 37.0 °F 29.8 °F 27.9 °F 69% 29.78 in 10.0 mi South 10.4 mph - N/A   Clear